Saturday, August 30, 2014
00:17 UTC
  |  Log In   |  Register Free
Airport Search:

Pike County-Hatcher Field Airport
(KPBX)

Pike County-Hatcher Field Airport Diagram
No Airport Diagram Available

FAA data valid effective July 24, 2014 until September 18, 2014 (unless otherwise noted).

 
 
 
 
 
 
 
 
 
 
 
 
 
 

Current Aviation Weather for Pike County-Hatcher Field Airport (KPBX)

The most recent METAR observation for KLNP was updated at: 2255 UTC
METAR Summary (Translated METAR)
KLNP
292255Z AUTO 17003KT 10SM CLR 27/18 A3016 RMK AO2 LTG DSNT NW
KVJI
(29.9 nm SE from KLNP)
292315Z AUTO 06004KT 1 1/4SM -RA SCT021 BKN043 OVC055 23/22 A3014 RMK AO2 LTG DSNT NW P0015 T02330220
TAF Summary (Translated TAF)
KTRI
(31.3 nm SE from KLNP)
291736Z 2918/3018 VRB03KT P6SM VCTS SCT050CB SCT090 FM300100 00000KT P6SM FEW100 FM300800 00000KT 4SM BR SKC FM301300 20003KT P6SM SCT250
  Airport Weather Conditions for KPBX

Current weather conditions are
not available for PBX


The nearest NOAA weather station
is at LNP, (34.5 nm SE from PBX)
  
 Current Weather at LNP
81° F
Fair
South winds at 3.5 mph
LNP NOAA Radar

Pressure: 30.16 in
Humidity: 58%
Wind: South at 3.5 MPH (3 KT)
Dew Point: 64.4°F
Visibility: 10.00 mi


Airport Weather Forecast for KPBX

Translated METAR and TAF for KLNP
Translated METAR for KLNP (0011 UTC 30 August 2014)
found at http://aviationweather.gov/adds/metars/
 
METAR text: KLNP 292355Z AUTO 35003KT 10SM BKN060 BKN075 26/20 A3017 RMK AO2
Conditions at: KLNP (WISE/LONESOME PI, VA, US) observed 2355 UTC 29 August 2014
Temperature: 26.0°C (79°F)
Dewpoint: 20.0°C (68°F) [RH = 70%]
Pressure (altimeter): 30.17 inches Hg (1021.8 mb)
Winds: from the N (350 degrees) at 3 MPH (3 knots; 1.6 m/s)
Visibility: 10 or more miles (16+ km)
Ceiling: 6000 feet AGL
Clouds: broken clouds at 6000 feet AGL
broken clouds at 7500 feet AGL
Weather: automated observation with no human augmentation;
there may or may not be significant weather present at this time
Translated TAF for KLNP

There is no translated TAF available for this airport

Find All Airport Services Find A Hotel Find A Rental Car Find A Golf Course Find A Restaurant $100 Hamburger



FBO's on the Field
FBO Company Facility Photos Services Transportation Aviation Fuel Prices: Prices include tax
Catering Weather Repair Courtesy Rental Type 100LL JetA JetA+ MOGAS 8087
 
Pikeville-Pike Airport

This FBO has not yet been rated
FS:Shell
Last Updated: Jul-29
Login to update fuel prices
SS:
Contact Pikeville-Pike AirportMore FBO Information
 
Add another FBO Facility Photos Catering Weather Repair Courtesy Rental Type 100LL JetA JetA+ MOGAS 8087
Services Transportation Aviation Fuel Prices: Prices include tax


GlobalAir.com Airport Resource Center model-print
model-print
model-print
model-print